createdAt,value
2023-04-04T00:00:42.539Z,5.05
2023-04-04T00:03:10.462Z,4.78
2023-04-04T00:05:38.411Z,3.92
2023-04-04T00:08:06.630Z,4.10
2023-04-04T00:10:35.728Z,4.32
2023-04-04T00:13:05.522Z,4.03
2023-04-04T00:15:34.589Z,3.67
2023-04-04T00:18:02.562Z,4.47
2023-04-04T00:20:30.557Z,4.20
2023-04-04T00:22:58.905Z,4.50
2023-04-04T00:25:26.627Z,4.78
2023-04-04T00:27:56.150Z,4.28
2023-04-04T00:30:23.885Z,4.43
2023-04-04T00:32:51.798Z,3.78
2023-04-04T00:35:19.812Z,3.72
2023-04-04T00:37:47.556Z,3.60
2023-04-04T00:40:15.718Z,3.25
2023-04-04T00:42:43.503Z,3.70
2023-04-04T00:45:12.947Z,3.95
2023-04-04T00:47:44.394Z,4.25
2023-04-04T00:50:12.664Z,3.65
2023-04-04T00:52:41.042Z,3.58
2023-04-04T00:55:09.997Z,4.45
2023-04-04T00:57:38.005Z,3.63
2023-04-04T01:00:07.868Z,3.58
2023-04-04T01:02:37.225Z,3.75
2023-04-04T01:05:05.514Z,3.10
2023-04-04T01:07:34.784Z,3.72
2023-04-04T01:10:05.175Z,3.90
2023-04-04T01:12:33.177Z,3.08
2023-04-04T01:15:01.104Z,3.47
2023-04-04T01:17:29.518Z,4.00
2023-04-04T01:20:04.348Z,3.00
2023-04-04T01:22:33.338Z,4.03
2023-04-04T01:25:02.848Z,4.45
2023-04-04T01:27:31.969Z,2.85
2023-04-04T01:29:59.821Z,3.13
2023-04-04T01:32:33.970Z,3.88
2023-04-04T01:35:12.857Z,3.78
2023-04-04T01:37:47.852Z,3.65
2023-04-04T01:40:19.512Z,3.95
2023-04-04T01:42:49.620Z,2.97
2023-04-04T01:45:17.494Z,3.40
2023-04-04T01:47:45.256Z,3.33
2023-04-04T01:50:13.085Z,3.65
2023-04-04T01:52:40.990Z,2.97
2023-04-04T01:55:09.446Z,2.95
2023-04-04T01:57:37.249Z,2.50
2023-04-04T02:00:07.756Z,2.75
2023-04-04T02:02:35.708Z,2.65
2023-04-04T02:05:04.198Z,2.60
2023-04-04T02:07:31.990Z,3.92
2023-04-04T02:09:59.712Z,3.60
2023-04-04T02:12:27.405Z,3.10
2023-04-04T02:14:55.108Z,2.65
2023-04-04T02:17:24.288Z,4.10
2023-04-04T02:19:52.916Z,2.58
2023-04-04T02:22:20.651Z,3.45
2023-04-04T02:24:48.392Z,2.67
2023-04-04T02:27:16.188Z,3.20
2023-04-04T02:29:44.502Z,1.98
2023-04-04T02:32:12.238Z,3.53
2023-04-04T02:34:41.359Z,2.63
2023-04-04T02:37:09.062Z,2.90
2023-04-04T02:39:36.758Z,3.58
2023-04-04T02:42:04.579Z,3.72
2023-04-04T02:44:32.272Z,3.53
2023-04-04T02:46:59.977Z,3.15
2023-04-04T02:49:28.700Z,3.60
2023-04-04T02:51:58.514Z,3.95
2023-04-04T02:54:26.233Z,4.28
2023-04-04T02:56:54.001Z,3.92
2023-04-04T02:59:21.809Z,3.95
2023-04-04T03:01:49.617Z,3.50
2023-04-04T03:04:19.441Z,4.25
2023-04-04T03:06:48.257Z,3.58
2023-04-04T03:09:17.394Z,3.65
2023-04-04T03:11:45.321Z,3.45
2023-04-04T03:14:13.189Z,4.25
2023-04-04T03:16:41.065Z,4.07
2023-04-04T03:19:08.820Z,3.83
2023-04-04T03:21:36.792Z,3.05
2023-04-04T03:24:04.892Z,3.75
2023-04-04T03:26:34.027Z,4.10
2023-04-04T03:29:04.310Z,3.30
2023-04-04T03:31:32.162Z,3.30
2023-04-04T03:34:00.926Z,2.95
2023-04-04T03:36:28.670Z,2.60
2023-04-04T03:38:56.406Z,2.65
2023-04-04T03:41:24.153Z,3.25
2023-04-04T03:43:53.298Z,2.47
2023-04-04T03:46:21.436Z,3.67
2023-04-04T03:48:49.346Z,3.38
2023-04-04T03:51:24.236Z,2.70
2023-04-04T03:53:52.041Z,2.38
2023-04-04T03:56:19.979Z,2.92
2023-04-04T03:58:47.806Z,2.92
2023-04-04T04:01:17.079Z,3.03
2023-04-04T04:03:44.792Z,3.25
2023-04-04T04:06:12.773Z,3.60
2023-04-04T04:08:40.913Z,3.38
2023-04-04T04:11:08.904Z,3.88
2023-04-04T04:13:37.769Z,2.63
2023-04-04T04:16:05.874Z,3.83
2023-04-04T04:18:35.088Z,3.38
2023-04-04T04:21:04.078Z,3.80
2023-04-04T04:23:32.008Z,3.65
2023-04-04T04:25:59.819Z,4.30
2023-04-04T04:28:33.612Z,2.55
2023-04-04T04:31:06.162Z,3.92
2023-04-04T04:33:35.315Z,3.63
2023-04-04T04:36:03.333Z,4.38
2023-04-04T04:38:31.257Z,3.00
2023-04-04T04:40:59.037Z,3.22
2023-04-04T04:43:27.644Z,3.83
2023-04-04T04:45:55.709Z,3.13
2023-04-04T04:48:23.498Z,3.67
2023-04-04T04:50:52.664Z,3.13
2023-04-04T04:53:20.507Z,3.90
2023-04-04T04:55:48.729Z,3.35
2023-04-04T04:58:17.545Z,3.97
2023-04-04T05:00:45.837Z,2.80
2023-04-04T05:03:13.711Z,3.95
2023-04-04T05:05:41.553Z,3.38
2023-04-04T05:08:10.660Z,3.50
2023-04-04T05:11:33.644Z,4.70
2023-04-04T05:14:01.899Z,4.93
2023-04-04T05:16:29.966Z,4.55
2023-04-04T05:18:57.946Z,3.47
2023-04-04T05:21:25.686Z,3.63
2023-04-04T05:23:55.079Z,4.40
2023-04-04T05:26:22.854Z,3.90
2023-04-04T05:28:50.539Z,3.83
2023-04-04T05:31:18.732Z,3.75
2023-04-04T05:33:46.497Z,3.08
2023-04-04T05:36:14.499Z,3.22
2023-04-04T05:38:42.547Z,3.42
2023-04-04T05:41:11.891Z,4.13
2023-04-04T05:43:39.612Z,4.22
2023-04-04T05:46:07.489Z,4.03
2023-04-04T05:48:35.187Z,6.15
2023-04-04T05:51:02.913Z,3.45
2023-04-04T05:53:30.837Z,4.28
2023-04-04T05:55:59.305Z,3.83
2023-04-04T05:58:28.428Z,5.35
2023-04-04T06:00:56.673Z,4.13
2023-04-04T06:03:24.540Z,3.88
2023-04-04T06:05:53.668Z,3.30
2023-04-04T06:08:21.531Z,4.53
2023-04-04T06:10:49.232Z,3.92
2023-04-04T06:13:17.089Z,3.92
2023-04-04T06:15:46.289Z,3.15
2023-04-04T06:18:14.150Z,3.80
2023-04-04T06:20:42.151Z,5.47
2023-04-04T06:23:10.129Z,5.32
2023-04-04T06:25:38.055Z,6.03
2023-04-04T06:28:06.373Z,4.78
2023-04-04T06:30:37.529Z,4.78
2023-04-04T06:33:07.452Z,6.28
2023-04-04T06:35:35.426Z,4.80
2023-04-04T06:38:04.204Z,4.90
2023-04-04T06:40:32.057Z,5.53
2023-04-04T06:42:59.980Z,4.22
2023-04-04T06:45:28.491Z,3.83
2023-04-04T06:47:56.461Z,5.07
2023-04-04T06:50:25.643Z,4.63
2023-04-04T06:52:53.662Z,4.82
2023-04-04T06:55:22.625Z,3.40
2023-04-04T06:57:50.326Z,4.80
2023-04-04T07:00:18.690Z,4.07
2023-04-04T07:02:46.901Z,5.63
2023-04-04T07:05:17.814Z,4.30
2023-04-04T07:07:47.585Z,5.25
2023-04-04T07:10:15.506Z,4.45
2023-04-04T07:12:43.511Z,4.78
2023-04-04T07:15:12.629Z,4.50
2023-04-04T07:17:41.127Z,3.35
2023-04-04T07:20:10.066Z,5.05
2023-04-04T07:22:38.671Z,4.53
2023-04-04T07:25:09.547Z,4.85
2023-04-04T07:27:37.504Z,5.15
2023-04-04T07:30:05.735Z,4.20
2023-04-04T07:32:33.484Z,5.05
2023-04-04T07:35:01.236Z,4.20
2023-04-04T07:37:28.971Z,4.13
2023-04-04T07:39:56.894Z,3.58
2023-04-04T07:42:26.583Z,4.38
2023-04-04T07:44:54.452Z,4.45
2023-04-04T07:47:22.522Z,4.03
2023-04-04T07:49:50.239Z,4.65
2023-04-04T07:52:17.964Z,4.10
2023-04-04T07:54:47.222Z,4.32
2023-04-04T07:57:14.917Z,4.93
2023-04-04T07:59:44.660Z,3.90
2023-04-04T08:02:12.415Z,4.97
2023-04-04T08:04:40.176Z,3.53
2023-04-04T08:07:07.888Z,3.47
2023-04-04T08:09:36.460Z,4.25
2023-04-04T08:12:05.599Z,4.38
2023-04-04T08:14:33.793Z,3.47
2023-04-04T08:17:03.071Z,2.65
2023-04-04T08:19:30.790Z,3.25
2023-04-04T08:21:58.551Z,3.15
2023-04-04T08:24:27.752Z,3.83
2023-04-04T08:27:04.475Z,2.88
2023-04-04T08:29:34.353Z,3.00
2023-04-04T08:32:03.547Z,3.45
2023-04-04T08:34:31.253Z,3.45
2023-04-04T08:36:59.942Z,2.70
2023-04-04T08:39:28.147Z,3.15
2023-04-04T08:42:03.149Z,3.67
2023-04-04T08:44:31.944Z,3.53
2023-04-04T08:47:01.125Z,3.58
2023-04-04T08:49:33.828Z,3.00
2023-04-04T08:52:03.863Z,2.95
2023-04-04T08:54:32.907Z,3.03
2023-04-04T08:57:00.880Z,2.65
2023-04-04T08:59:28.857Z,2.97
2023-04-04T09:02:02.415Z,2.88
2023-04-04T09:07:03.491Z,2.33
2023-04-04T09:09:32.878Z,2.42
2023-04-04T09:12:02.471Z,2.00
2023-04-04T09:14:31.880Z,2.55
2023-04-04T09:16:59.695Z,3.17
2023-04-04T09:19:27.631Z,2.65
2023-04-04T09:21:56.826Z,1.88
2023-04-04T09:24:24.565Z,2.75
2023-04-04T09:26:54.228Z,2.85
2023-04-04T09:29:22.784Z,2.58
2023-04-04T09:31:51.664Z,2.47
2023-04-04T09:34:21.225Z,2.13
2023-04-04T09:36:49.291Z,3.00
2023-04-04T09:39:20.867Z,2.63
2023-04-04T09:41:49.337Z,2.58
2023-04-04T09:44:18.182Z,2.30
2023-04-04T09:46:46.325Z,2.60
2023-04-04T09:49:21.357Z,2.03
2023-04-04T09:51:54.901Z,2.08
2023-04-04T09:54:29.736Z,2.30
2023-04-04T09:56:58.209Z,2.05
2023-04-04T09:59:26.087Z,2.25
2023-04-04T10:01:55.997Z,1.92
2023-04-04T10:04:26.973Z,2.28
2023-04-04T10:06:55.794Z,2.35
2023-04-04T10:09:24.960Z,2.03
2023-04-04T10:12:08.689Z,2.15
2023-04-04T10:17:10.467Z,2.38
2023-04-04T10:19:39.475Z,2.47
2023-04-04T10:22:07.421Z,2.75
2023-04-04T10:24:36.736Z,1.60
2023-04-04T10:27:04.637Z,2.55
2023-04-04T10:29:32.448Z,2.35
2023-04-04T10:32:06.228Z,2.28
2023-04-04T10:34:40.340Z,2.05
2023-04-04T10:37:13.641Z,1.77
2023-04-04T10:42:16.733Z,2.33
2023-04-04T10:44:46.911Z,2.17
2023-04-04T10:47:18.100Z,1.85
2023-04-04T10:49:47.091Z,2.20
2023-04-04T10:52:16.890Z,2.00
2023-04-04T10:54:46.526Z,2.42
2023-04-04T10:57:15.341Z,1.88
2023-04-04T10:59:59.118Z,2.10
2023-04-04T11:02:45.481Z,2.38
2023-04-04T11:05:13.861Z,2.13
2023-04-04T11:07:43.162Z,2.10
2023-04-04T11:10:18.151Z,2.20
2023-04-04T11:12:47.618Z,2.05
2023-04-04T11:15:16.425Z,1.95
2023-04-04T11:17:52.932Z,2.08
2023-04-04T11:20:22.513Z,1.77
2023-04-04T11:22:51.566Z,2.00
2023-04-04T11:25:50.626Z,2.20
2023-04-04T11:28:29.146Z,1.92
2023-04-04T11:31:29.362Z,2.10
2023-04-04T11:34:03.817Z,1.48
2023-04-04T11:36:51.986Z,1.90
2023-04-04T11:39:30.458Z,2.28
2023-04-04T11:42:04.537Z,2.78
2023-04-04T11:44:33.612Z,1.85
2023-04-04T11:47:05.218Z,2.00
2023-04-04T11:49:37.122Z,2.00
2023-04-04T11:52:06.536Z,1.50
2023-04-04T11:54:34.877Z,1.63
2023-04-04T11:57:04.363Z,1.27
2023-04-04T11:59:32.476Z,1.80
2023-04-04T12:02:02.856Z,1.85
2023-04-04T12:04:30.765Z,2.33
2023-04-04T12:06:58.600Z,2.08
2023-04-04T12:09:28.339Z,1.92
2023-04-04T12:11:57.008Z,1.58
2023-04-04T12:14:27.187Z,1.90
2023-04-04T12:16:56.622Z,1.60
2023-04-04T12:19:25.000Z,2.10
2023-04-04T12:21:53.948Z,2.13
2023-04-04T12:24:22.070Z,3.00
2023-04-04T12:26:51.622Z,2.17
2023-04-04T12:29:23.227Z,1.77
2023-04-04T12:31:53.804Z,1.88
2023-04-04T12:34:24.316Z,1.83
2023-04-04T12:36:54.066Z,1.75
2023-04-04T12:39:23.553Z,2.13
2023-04-04T12:41:57.350Z,1.70
2023-04-04T12:44:30.768Z,1.50
2023-04-04T12:47:01.306Z,2.53
2023-04-04T12:49:31.266Z,2.42
2023-04-04T12:52:03.805Z,1.80
2023-04-04T12:54:34.309Z,1.77
2023-04-04T12:57:05.678Z,1.70
2023-04-04T12:59:34.828Z,1.92
2023-04-04T13:02:08.776Z,1.90
2023-04-04T13:04:37.827Z,2.10
2023-04-04T13:07:05.855Z,1.90
2023-04-04T13:09:35.747Z,1.40
2023-04-04T13:12:08.498Z,2.08
2023-04-04T13:15:01.279Z,1.60
2023-04-04T13:17:43.420Z,1.53
2023-04-04T13:20:11.951Z,2.03
2023-04-04T13:22:40.401Z,1.77
2023-04-04T13:25:10.198Z,1.70
2023-04-04T13:27:38.917Z,2.00
2023-04-04T13:30:11.006Z,2.20
2023-04-04T13:32:39.299Z,2.13
2023-04-04T13:35:09.651Z,1.58
2023-04-04T13:37:37.326Z,1.65
2023-04-04T13:40:05.864Z,2.13
2023-04-04T13:42:34.033Z,2.63
2023-04-04T13:45:01.745Z,1.83
2023-04-04T13:47:29.537Z,1.73
2023-04-04T13:49:57.320Z,1.98
2023-04-04T13:52:26.580Z,1.80
2023-04-04T13:54:54.275Z,2.05
2023-04-04T13:57:22.205Z,1.70
2023-04-04T13:59:50.126Z,1.88
2023-04-04T14:02:17.910Z,2.25
2023-04-04T14:04:45.663Z,2.10
2023-04-04T14:07:13.402Z,2.13
2023-04-04T14:09:42.757Z,1.98
2023-04-04T14:12:10.472Z,2.22
2023-04-04T14:14:38.317Z,1.52
2023-04-04T14:17:06.360Z,1.58
2023-04-04T14:19:34.091Z,1.63
2023-04-04T14:22:02.206Z,2.13
2023-04-04T14:24:29.975Z,2.08
2023-04-04T14:26:59.070Z,2.00
2023-04-04T14:29:26.830Z,2.28
2023-04-04T14:31:55.672Z,1.70
2023-04-04T14:34:26.509Z,2.03
2023-04-04T14:36:54.366Z,1.50
2023-04-04T14:39:22.105Z,1.65
2023-04-04T14:41:49.807Z,1.60
2023-04-04T14:44:20.543Z,1.63
2023-04-04T14:46:48.327Z,1.50
2023-04-04T14:49:16.402Z,1.50
2023-04-04T14:51:44.148Z,2.53
2023-04-04T14:54:11.902Z,1.70
2023-04-04T14:56:39.631Z,2.13
2023-04-04T14:59:08.148Z,1.50
2023-04-04T15:01:37.365Z,2.08
2023-04-04T15:04:07.089Z,1.55
2023-04-04T15:06:37.820Z,1.83
2023-04-04T15:09:06.702Z,1.80
2023-04-04T15:11:35.344Z,1.95
2023-04-04T15:14:03.149Z,1.85
2023-04-04T15:16:33.113Z,1.92
2023-04-04T15:19:02.565Z,2.03
2023-04-04T15:21:31.617Z,1.85
2023-04-04T15:23:59.337Z,1.52
2023-04-04T15:26:27.054Z,1.42
2023-04-04T15:28:54.888Z,2.22
2023-04-04T15:31:22.941Z,1.90
2023-04-04T15:33:50.686Z,2.10
2023-04-04T15:36:20.040Z,2.60
2023-04-04T15:38:47.768Z,2.22
2023-04-04T15:41:15.519Z,2.10
2023-04-04T15:43:43.317Z,1.90
2023-04-04T15:46:11.161Z,1.75
2023-04-04T15:48:38.918Z,2.13
2023-04-04T15:51:07.231Z,1.95
2023-04-04T15:53:36.735Z,2.05
2023-04-04T15:56:04.474Z,1.80
2023-04-04T15:58:32.236Z,1.90
2023-04-04T16:00:59.987Z,1.95
2023-04-04T16:03:27.948Z,2.28
2023-04-04T16:05:55.826Z,1.80
2023-04-04T16:08:23.623Z,1.88
2023-04-04T16:10:52.855Z,2.58
2023-04-04T16:13:20.619Z,1.80
2023-04-04T16:15:48.365Z,1.83
2023-04-04T16:18:16.064Z,1.83
2023-04-04T16:20:43.852Z,1.33
2023-04-04T16:23:11.600Z,1.90
2023-04-04T16:25:39.247Z,1.80
2023-04-04T16:28:08.433Z,1.88
2023-04-04T16:30:36.491Z,2.40
2023-04-04T16:33:04.469Z,1.83
2023-04-04T16:35:32.863Z,2.10
2023-04-04T16:38:00.616Z,1.85
2023-04-04T16:40:28.312Z,2.10
2023-04-04T16:42:56.205Z,2.95
2023-04-04T16:45:25.528Z,2.05
2023-04-04T16:47:53.309Z,3.08
2023-04-04T16:50:21.314Z,2.58
2023-04-04T16:52:49.088Z,2.17
2023-04-04T16:55:16.864Z,2.10
2023-04-04T16:57:44.567Z,1.75
2023-04-04T17:00:14.337Z,2.05
2023-04-04T17:02:45.479Z,2.85
2023-04-04T17:05:13.584Z,2.15
2023-04-04T17:07:41.781Z,2.17
2023-04-04T17:10:10.756Z,2.13
2023-04-04T17:12:39.317Z,2.50
2023-04-04T17:15:07.871Z,2.00
2023-04-04T17:17:35.791Z,1.73
2023-04-04T17:20:05.541Z,1.77
2023-04-04T17:22:33.342Z,1.83
2023-04-04T17:25:01.075Z,1.73
2023-04-04T17:27:28.749Z,1.80
2023-04-04T17:29:56.466Z,1.52
2023-04-04T17:32:24.171Z,2.30
2023-04-04T17:34:51.900Z,2.08
2023-04-04T17:37:21.037Z,2.17
2023-04-04T17:39:48.798Z,2.38
2023-04-04T17:42:16.759Z,2.08
2023-04-04T17:44:44.471Z,1.88
2023-04-04T17:47:12.731Z,2.15
2023-04-04T17:49:40.474Z,1.45
2023-04-04T17:52:08.810Z,2.92
2023-04-04T17:54:38.377Z,2.42
2023-04-04T17:57:07.228Z,2.55
2023-04-04T17:59:35.025Z,2.03
2023-04-04T18:02:03.096Z,2.10
2023-04-04T18:04:30.832Z,2.20
2023-04-04T18:06:59.160Z,2.20
2023-04-04T18:09:28.919Z,2.42
2023-04-04T18:11:58.212Z,1.80
2023-04-04T18:14:26.308Z,2.13
2023-04-04T18:16:54.163Z,2.30
2023-04-04T18:19:21.850Z,2.35
2023-04-04T18:21:51.249Z,3.00
2023-04-04T18:24:19.063Z,3.08
2023-04-04T18:26:46.776Z,3.25
2023-04-04T18:29:16.059Z,3.10
2023-04-04T18:31:43.810Z,3.08
2023-04-04T18:34:15.067Z,2.53
2023-04-04T18:36:42.831Z,2.75
2023-04-04T18:39:11.102Z,3.03
2023-04-04T18:41:39.016Z,2.85
2023-04-04T18:44:07.402Z,3.53
2023-04-04T18:46:38.170Z,2.85
2023-04-04T18:49:06.084Z,3.35
2023-04-04T18:51:34.372Z,3.63
2023-04-04T18:54:02.134Z,2.95
2023-04-04T18:56:29.856Z,3.15
2023-04-04T18:58:57.595Z,3.35
2023-04-04T19:01:25.488Z,3.53
2023-04-04T19:03:55.424Z,3.75
2023-04-04T19:06:27.361Z,2.92
2023-04-04T19:08:58.478Z,3.72
2023-04-04T19:11:26.277Z,3.08
2023-04-04T19:13:54.009Z,4.15
2023-04-04T19:16:22.521Z,3.63
2023-04-04T19:18:50.255Z,3.15
2023-04-04T19:21:19.417Z,4.20
2023-04-04T19:23:48.311Z,3.28
2023-04-04T19:26:18.020Z,3.33
2023-04-04T19:28:47.215Z,3.88
2023-04-04T19:31:21.633Z,4.13
2023-04-04T19:33:49.817Z,3.85
2023-04-04T19:36:18.918Z,3.97
2023-04-04T19:38:48.372Z,3.95
2023-04-04T19:41:33.800Z,4.10
2023-04-04T19:44:01.826Z,4.90
2023-04-04T19:46:31.698Z,4.57
2023-04-04T19:49:00.107Z,5.03
2023-04-04T19:51:43.565Z,4.30
2023-04-04T19:54:17.724Z,6.28
2023-04-04T19:56:47.550Z,5.35
2023-04-04T19:59:53.008Z,5.15
2023-04-04T20:02:53.891Z,4.63
2023-04-04T20:06:03.271Z,4.75
2023-04-04T20:08:39.002Z,4.03
2023-04-04T20:11:07.772Z,4.38
2023-04-04T20:13:37.240Z,5.13
2023-04-04T20:16:10.976Z,4.63
2023-04-04T20:18:40.051Z,5.68
2023-04-04T20:21:12.667Z,5.47
2023-04-04T20:23:52.499Z,5.10
2023-04-04T20:26:42.660Z,4.68
2023-04-04T20:29:12.415Z,4.30
2023-04-04T20:31:43.951Z,4.88
2023-04-04T20:34:31.182Z,5.13
2023-04-04T20:36:58.949Z,4.65
2023-04-04T20:39:44.903Z,4.70
2023-04-04T20:42:40.169Z,6.05
2023-04-04T20:45:29.418Z,5.10
2023-04-04T20:47:57.892Z,5.28
2023-04-04T20:50:46.206Z,4.53
2023-04-04T20:53:21.156Z,4.63
2023-04-04T20:55:51.446Z,4.88
2023-04-04T20:58:28.459Z,5.25
2023-04-04T21:00:57.990Z,4.63
2023-04-04T21:03:36.051Z,5.75
2023-04-04T21:06:11.487Z,4.75
2023-04-04T21:08:49.385Z,5.00
2023-04-04T21:11:25.073Z,5.13
2023-04-04T21:13:52.852Z,5.38
2023-04-04T21:16:24.511Z,5.75
2023-04-04T21:18:57.907Z,5.25
2023-04-04T21:21:26.554Z,5.05
2023-04-04T21:23:56.145Z,4.68
2023-04-04T21:26:30.269Z,5.35
2023-04-04T21:28:59.272Z,5.63
2023-04-04T21:31:30.693Z,3.80
2023-04-04T21:33:59.436Z,4.45
2023-04-04T21:36:29.658Z,4.43
2023-04-04T21:38:59.329Z,4.38
2023-04-04T21:41:29.912Z,4.35
2023-04-04T21:43:59.503Z,4.80
2023-04-04T21:46:28.748Z,5.13
2023-04-04T21:48:57.263Z,4.97
2023-04-04T21:51:24.977Z,4.50
2023-04-04T21:53:52.740Z,4.47
2023-04-04T21:56:21.176Z,3.70
2023-04-04T21:58:50.995Z,4.03
2023-04-04T22:01:18.692Z,3.35
2023-04-04T22:03:46.451Z,7.85
2023-04-04T22:06:14.381Z,7.80
2023-04-04T22:08:42.343Z,8.10
2023-04-04T22:11:13.439Z,7.72
2023-04-04T22:13:46.800Z,6.93
2023-04-04T22:16:17.590Z,5.90
2023-04-04T22:18:47.716Z,4.57
2023-04-04T22:21:16.719Z,5.93
2023-04-04T22:23:44.759Z,5.90
2023-04-04T22:26:15.242Z,5.50
2023-04-04T22:28:45.682Z,4.78
2023-04-04T22:31:13.802Z,5.65
2023-04-04T22:33:43.456Z,5.68
2023-04-04T22:36:11.309Z,5.53
2023-04-04T22:38:39.462Z,7.47
2023-04-04T22:41:07.390Z,6.53
2023-04-04T22:43:35.330Z,7.72
2023-04-04T22:46:03.095Z,6.90
2023-04-04T22:48:30.917Z,7.25
2023-04-04T22:51:02.754Z,6.03
2023-04-04T22:53:30.529Z,6.47
2023-04-04T22:56:00.649Z,6.20
2023-04-04T22:58:28.395Z,5.00
2023-04-04T23:00:56.141Z,5.70
2023-04-04T23:03:23.858Z,5.45
2023-04-04T23:05:51.615Z,5.93
2023-04-04T23:08:20.755Z,6.70
2023-04-04T23:10:48.436Z,6.28
2023-04-04T23:13:16.215Z,8.23
2023-04-04T23:15:45.038Z,8.57
2023-04-04T23:18:13.470Z,7.13
2023-04-04T23:20:41.902Z,10.48
2023-04-04T23:23:09.833Z,12.07
2023-04-04T23:25:38.899Z,9.68
2023-04-04T23:28:06.581Z,9.60
2023-04-04T23:30:34.322Z,7.30
2023-04-04T23:33:02.099Z,9.77
2023-04-04T23:35:29.886Z,6.38
2023-04-04T23:37:57.577Z,6.63
2023-04-04T23:40:25.541Z,7.30
2023-04-04T23:42:54.594Z,7.72
2023-04-04T23:47:50.189Z,6.63
2023-04-04T23:50:19.100Z,6.68
2023-04-04T23:52:46.869Z,6.45
2023-04-04T23:55:16.964Z,6.57
2023-04-04T23:57:44.985Z,7.20
